Time;durP1;ratioP1;P1;durP2;ratioP2;P2;SDS_P1;SDS_P2;PMS_P1;PMS_P2;Temp;Humidity;BMP_temperature;BMP_pressure;BME280_temperature;BME280_humidity;BME280_pressure;Samples;Min_cycle;Max_cycle;Signal;HPM_P1;HPM_P2
2023/07/04 00:00:23;;;;;;;2.67;1.97;;;;;;;;;;5070421;28;20287;-49
2023/07/04 00:02:51;;;;;;;2.30;1.57;;;;;;;;;;5070530;28;20322;-47
2023/07/04 00:05:17;;;;;;;2.20;1.50;;;;;;;;;;5070461;28;20234;-50
2023/07/04 00:07:43;;;;;;;2.80;2.03;;;;;;;;;;5070593;28;20210;-50
2023/07/04 00:10:09;;;;;;;3.10;2.23;;;;;;;;;;5070582;28;20212;-53
2023/07/04 00:12:35;;;;;;;3.20;1.80;;;;;;;;;;5070535;28;20677;-50
2023/07/04 00:15:02;;;;;;;4.07;2.00;;;;;;;;;;5068451;28;20211;-54
2023/07/04 00:17:28;;;;;;;5.07;2.20;;;;;;;;;;5070274;28;20277;-52
2023/07/04 00:19:56;;;;;;;2.43;2.07;;;;;;;;;;5070501;28;20658;-53
2023/07/04 00:22:23;;;;;;;9.60;2.17;;;;;;;;;;5070271;28;20200;-53
2023/07/04 00:24:49;;;;;;;4.93;1.73;;;;;;;;;;5070452;28;20208;-52
2023/07/04 00:27:16;;;;;;;3.33;2.37;;;;;;;;;;5070368;28;20206;-53
2023/07/04 00:29:42;;;;;;;4.00;2.03;;;;;;;;;;5070199;28;20674;-54
2023/07/04 00:32:09;;;;;;;2.73;1.90;;;;;;;;;;5070182;28;20214;-54
2023/07/04 00:34:35;;;;;;;2.70;1.90;;;;;;;;;;5070366;28;20195;-54
2023/07/04 00:37:03;;;;;;;3.40;2.10;;;;;;;;;;5070261;28;20192;-53
2023/07/04 00:39:29;;;;;;;4.57;2.00;;;;;;;;;;5070357;28;20195;-52
2023/07/04 00:41:56;;;;;;;5.33;1.80;;;;;;;;;;5069987;28;20314;-51
2023/07/04 00:44:24;;;;;;;3.73;2.00;;;;;;;;;;5070150;28;20821;-52
2023/07/04 00:46:53;;;;;;;3.20;1.70;;;;;;;;;;5070152;28;20206;-52
2023/07/04 00:49:22;;;;;;;5.03;1.70;;;;;;;;;;5070470;28;20269;-52
2023/07/04 00:51:51;;;;;;;6.00;1.90;;;;;;;;;;5073805;28;20681;-52
2023/07/04 00:54:19;;;;;;;3.17;1.67;;;;;;;;;;5073633;28;20253;-54
2023/07/04 00:56:46;;;;;;;2.90;1.87;;;;;;;;;;5073787;28;20265;-53
2023/07/04 00:59:12;;;;;;;4.10;2.00;;;;;;;;;;5073664;28;20329;-53
2023/07/04 01:01:38;;;;;;;3.67;1.77;;;;;;;;;;5073650;28;20249;-53
2023/07/04 01:04:04;;;;;;;2.47;1.60;;;;;;;;;;5073354;28;20227;-54
2023/07/04 01:06:32;;;;;;;2.40;1.60;;;;;;;;;;5073445;28;20601;-53
2023/07/04 01:09:01;;;;;;;4.33;1.80;;;;;;;;;;5073560;28;20210;-52
2023/07/04 01:11:32;;;;;;;4.57;1.90;;;;;;;;;;5073580;28;20203;-52
2023/07/04 01:13:58;;;;;;;3.10;2.03;;;;;;;;;;5073285;28;20677;-53
2023/07/04 01:16:24;;;;;;;3.80;2.10;;;;;;;;;;5072999;28;20223;-54
2023/07/04 01:18:51;;;;;;;5.13;2.03;;;;;;;;;;5073306;28;20195;-54
2023/07/04 01:21:18;;;;;;;4.30;1.93;;;;;;;;;;5073166;28;20592;-52
2023/07/04 01:23:47;;;;;;;5.70;2.30;;;;;;;;;;5073098;28;20729;-52
2023/07/04 01:26:23;;;;;;;4.17;2.00;;;;;;;;;;5073121;28;20191;-53
2023/07/04 01:28:53;;;;;;;3.50;1.93;;;;;;;;;;5073206;28;20210;-51
2023/07/04 01:31:20;;;;;;;6.40;1.97;;;;;;;;;;5072921;28;20274;-52
2023/07/04 01:33:48;;;;;;;5.63;2.13;;;;;;;;;;5073131;28;20830;-52
2023/07/04 01:36:15;;;;;;;3.37;1.80;;;;;;;;;;5072969;28;20203;-52
2023/07/04 01:38:41;;;;;;;3.70;1.63;;;;;;;;;;5073048;28;20269;-54
2023/07/04 01:41:07;;;;;;;3.70;2.17;;;;;;;;;;5072951;28;20662;-52
2023/07/04 01:43:34;;;;;;;4.87;1.87;;;;;;;;;;5072908;28;20232;-52
2023/07/04 01:46:01;;;;;;;3.47;2.00;;;;;;;;;;5072788;28;20291;-52
2023/07/04 01:48:27;;;;;;;3.53;2.10;;;;;;;;;;5072729;28;20926;-51
2023/07/04 01:50:53;;;;;;;3.90;1.87;;;;;;;;;;5072735;28;20191;-52
2023/07/04 01:53:19;;;;;;;3.70;2.40;;;;;;;;;;5072567;28;20249;-52
2023/07/04 01:55:45;;;;;;;4.47;1.80;;;;;;;;;;5072731;28;20200;-52
2023/07/04 01:58:11;;;;;;;2.93;1.70;;;;;;;;;;5072519;28;20231;-52
2023/07/04 02:00:39;;;;;;;5.27;1.87;;;;;;;;;;5072540;28;20195;-52
2023/07/04 02:03:05;;;;;;;4.70;1.90;;;;;;;;;;5072325;28;20800;-52
2023/07/04 02:05:31;;;;;;;5.73;2.73;;;;;;;;;;5072521;28;20663;-52
2023/07/04 02:07:58;;;;;;;4.10;1.97;;;;;;;;;;5072361;28;20713;-53
2023/07/04 02:10:25;;;;;;;4.80;2.00;;;;;;;;;;5072358;28;20550;-54
2023/07/04 02:12:50;;;;;;;4.70;2.23;;;;;;;;;;5072652;28;20196;-54
2023/07/04 02:15:17;;;;;;;6.47;2.30;;;;;;;;;;5072021;28;20202;-55
2023/07/04 02:17:44;;;;;;;4.63;2.27;;;;;;;;;;5072096;28;20741;-54
2023/07/04 02:20:11;;;;;;;3.53;1.90;;;;;;;;;;5072008;28;20763;-54
2023/07/04 02:22:38;;;;;;;3.90;2.00;;;;;;;;;;5072070;28;20199;-54
2023/07/04 02:25:05;;;;;;;2.43;1.77;;;;;;;;;;5072078;28;20199;-55
2023/07/04 02:27:31;;;;;;;3.80;1.90;;;;;;;;;;5072365;28;20199;-51
2023/07/04 02:29:57;;;;;;;5.53;2.30;;;;;;;;;;5071989;28;20199;-54
2023/07/04 02:32:23;;;;;;;3.33;1.80;;;;;;;;;;5071758;28;20541;-54
2023/07/04 02:34:50;;;;;;;3.50;2.10;;;;;;;;;;5071932;28;20515;-53
2023/07/04 02:37:16;;;;;;;3.37;1.90;;;;;;;;;;5071756;28;20203;-52
2023/07/04 02:39:42;;;;;;;3.87;1.90;;;;;;;;;;5071788;28;20200;-52
2023/07/04 02:42:08;;;;;;;4.43;2.00;;;;;;;;;;5071609;28;20265;-53
2023/07/04 02:44:34;;;;;;;4.60;2.20;;;;;;;;;;5071842;28;20607;-52
2023/07/04 02:47:00;;;;;;;6.30;2.00;;;;;;;;;;5071561;28;20291;-52
2023/07/04 02:49:26;;;;;;;3.97;1.70;;;;;;;;;;5071585;28;20286;-52
2023/07/04 02:51:54;;;;;;;3.87;2.13;;;;;;;;;;5071574;28;20254;-52
2023/07/04 02:54:20;;;;;;;5.20;2.10;;;;;;;;;;5071445;28;20203;-52
2023/07/04 02:56:46;;;;;;;2.87;2.13;;;;;;;;;;5071504;28;20223;-52
2023/07/04 02:59:12;;;;;;;3.23;1.77;;;;;;;;;;5070038;28;20268;-53
2023/07/04 03:01:38;;;;;;;4.87;2.10;;;;;;;;;;5071427;28;20601;-53
2023/07/04 03:04:04;;;;;;;5.20;2.10;;;;;;;;;;5071245;28;20385;-52
2023/07/04 03:06:30;;;;;;;4.87;1.93;;;;;;;;;;5071316;28;20738;-51
2023/07/04 03:08:58;;;;;;;8.27;2.00;;;;;;;;;;5071290;28;20601;-52
2023/07/04 03:11:24;;;;;;;4.57;1.87;;;;;;;;;;5071246;28;20290;-52
2023/07/04 03:13:50;;;;;;;6.10;2.17;;;;;;;;;;5070843;28;20282;-52
2023/07/04 03:16:16;;;;;;;3.43;1.80;;;;;;;;;;5070703;28;20199;-53
2023/07/04 03:18:42;;;;;;;5.77;1.90;;;;;;;;;;5070594;28;20295;-52
2023/07/04 03:21:08;;;;;;;5.47;1.87;;;;;;;;;;5070893;28;20199;-52
2023/07/04 03:23:34;;;;;;;2.63;2.00;;;;;;;;;;5070923;28;20247;-52
2023/07/04 03:26:02;;;;;;;4.30;1.90;;;;;;;;;;5070567;28;20574;-52
2023/07/04 03:28:28;;;;;;;5.13;2.17;;;;;;;;;;5071103;28;20203;-52
2023/07/04 03:30:54;;;;;;;3.07;1.93;;;;;;;;;;5070997;28;20267;-52
2023/07/04 03:33:20;;;;;;;4.37;2.10;;;;;;;;;;5070913;28;20223;-53
2023/07/04 03:35:46;;;;;;;5.00;2.10;;;;;;;;;;5070930;28;20241;-53
2023/07/04 03:38:12;;;;;;;3.87;2.30;;;;;;;;;;5070875;28;20196;-52
2023/07/04 03:40:39;;;;;;;4.83;2.03;;;;;;;;;;5070877;28;20206;-52
2023/07/04 03:43:06;;;;;;;4.93;1.93;;;;;;;;;;5070607;28;20243;-52
2023/07/04 03:45:32;;;;;;;3.60;2.00;;;;;;;;;;5070827;28;20621;-51
2023/07/04 03:47:58;;;;;;;5.07;2.00;;;;;;;;;;5070850;28;20632;-51
2023/07/04 03:50:24;;;;;;;5.07;2.07;;;;;;;;;;5070752;28;20275;-53
2023/07/04 03:52:50;;;;;;;3.33;2.00;;;;;;;;;;5070764;28;20290;-53
2023/07/04 03:55:16;;;;;;;6.70;2.37;;;;;;;;;;5070750;28;20223;-53
2023/07/04 03:57:43;;;;;;;3.07;1.97;;;;;;;;;;5070682;28;20257;-53
2023/07/04 04:00:11;;;;;;;4.63;2.30;;;;;;;;;;5070638;28;20262;-52
2023/07/04 04:02:37;;;;;;;6.07;2.57;;;;;;;;;;5070551;28;20227;-53
2023/07/04 04:05:03;;;;;;;4.13;2.13;;;;;;;;;;5070478;28;20251;-52
2023/07/04 04:07:29;;;;;;;4.43;1.97;;;;;;;;;;5070627;28;20574;-53
2023/07/04 04:09:55;;;;;;;4.00;2.20;;;;;;;;;;5070556;28;20203;-53
2023/07/04 04:12:21;;;;;;;4.73;2.30;;;;;;;;;;5070485;28;20197;-54
2023/07/04 04:14:47;;;;;;;6.63;2.13;;;;;;;;;;5070535;28;20286;-52
2023/07/04 04:17:14;;;;;;;4.57;2.20;;;;;;;;;;5070248;28;20432;-52
2023/07/04 04:19:40;;;;;;;3.13;2.10;;;;;;;;;;5070674;28;20298;-54
2023/07/04 04:22:06;;;;;;;3.57;2.37;;;;;;;;;;5070477;28;20717;-51
2023/07/04 04:24:32;;;;;;;7.73;1.80;;;;;;;;;;5071032;28;20230;-53
2023/07/04 04:27:02;;;;;;;5.57;1.93;;;;;;;;;;5074268;28;20199;-53
2023/07/04 04:29:28;;;;;;;5.27;2.03;;;;;;;;;;5074335;28;20222;-53
2023/07/04 04:31:55;;;;;;;7.17;2.33;;;;;;;;;;5074209;28;20670;-53
2023/07/04 04:34:23;;;;;;;6.30;2.10;;;;;;;;;;5074177;28;20202;-53
2023/07/04 04:36:49;;;;;;;4.90;2.40;;;;;;;;;;5074117;28;20230;-52
2023/07/04 04:39:15;;;;;;;3.93;2.10;;;;;;;;;;5074024;28;20685;-52
2023/07/04 04:41:41;;;;;;;3.67;2.00;;;;;;;;;;5074081;28;20260;-53
2023/07/04 04:44:08;;;;;;;7.23;2.60;;;;;;;;;;5073792;28;20327;-53
2023/07/04 04:46:37;;;;;;;4.57;2.10;;;;;;;;;;5073812;28;20219;-54
2023/07/04 04:49:03;;;;;;;7.87;2.17;;;;;;;;;;5073793;28;20195;-53
2023/07/04 04:51:30;;;;;;;3.53;1.87;;;;;;;;;;5073866;28;20292;-53
2023/07/04 04:53:57;;;;;;;4.93;2.10;;;;;;;;;;5074193;28;20196;-53
2023/07/04 04:56:23;;;;;;;5.83;2.57;;;;;;;;;;5073584;28;20654;-54
2023/07/04 04:58:49;;;;;;;7.43;2.57;;;;;;;;;;5073594;28;20191;-53
2023/07/04 05:01:17;;;;;;;5.93;2.10;;;;;;;;;;5073476;28;20279;-53
2023/07/04 05:03:43;;;;;;;4.40;2.17;;;;;;;;;;5073577;28;20277;-53
2023/07/04 05:06:09;;;;;;;5.10;2.17;;;;;;;;;;5073458;28;20219;-53
2023/07/04 05:08:36;;;;;;;5.57;2.50;;;;;;;;;;5073660;28;20192;-52
2023/07/04 05:11:04;;;;;;;6.83;2.13;;;;;;;;;;5073607;28;20203;-53
2023/07/04 05:13:30;;;;;;;6.73;2.10;;;;;;;;;;5073362;28;20203;-53
2023/07/04 05:16:00;;;;;;;5.33;2.13;;;;;;;;;;5073276;28;20253;-53
2023/07/04 05:18:26;;;;;;;2.33;1.77;;;;;;;;;;5073212;28;20218;-52
2023/07/04 05:20:59;;;;;;;4.20;2.20;;;;;;;;;;5073013;28;20674;-53
2023/07/04 05:23:25;;;;;;;8.13;2.63;;;;;;;;;;5073001;28;20303;-52
2023/07/04 05:25:59;;;;;;;5.73;2.33;;;;;;;;;;5073236;28;20646;-54
2023/07/04 05:28:25;;;;;;;5.87;2.20;;;;;;;;;;5073000;28;20829;-52
2023/07/04 05:30:56;;;;;;;6.00;2.30;;;;;;;;;;5073061;28;20192;-52
2023/07/04 05:33:22;;;;;;;10.03;2.30;;;;;;;;;;5072925;28;20223;-53
2023/07/04 05:35:48;;;;;;;4.07;2.27;;;;;;;;;;5072537;28;20219;-52
2023/07/04 05:38:14;;;;;;;8.07;2.47;;;;;;;;;;5073004;28;20542;-53
2023/07/04 05:40:40;;;;;;;4.77;2.10;;;;;;;;;;5072807;28;20206;-52
2023/07/04 05:43:08;;;;;;;2.93;1.63;;;;;;;;;;5072549;28;20236;-53
2023/07/04 05:45:34;;;;;;;9.77;2.67;;;;;;;;;;5072702;28;20696;-53
2023/07/04 05:48:00;;;;;;;5.17;2.20;;;;;;;;;;5072872;28;20199;-52
2023/07/04 05:50:26;;;;;;;6.07;2.40;;;;;;;;;;5072624;28;20203;-52
2023/07/04 05:52:51;;;;;;;2.63;1.73;;;;;;;;;;5072826;28;20200;-52
2023/07/04 05:55:17;;;;;;;5.10;1.77;;;;;;;;;;5072444;28;20286;-53
2023/07/04 05:57:43;;;;;;;3.07;1.70;;;;;;;;;;5072428;28;20187;-53
2023/07/04 06:00:12;;;;;;;3.73;2.00;;;;;;;;;;5072403;28;20670;-53
2023/07/04 06:02:39;;;;;;;6.50;2.27;;;;;;;;;;5072517;28;20199;-52
2023/07/04 06:05:06;;;;;;;5.50;2.00;;;;;;;;;;5072424;28;20310;-51
2023/07/04 06:07:32;;;;;;;6.53;2.10;;;;;;;;;;5072569;28;20554;-51
2023/07/04 06:09:58;;;;;;;5.60;2.20;;;;;;;;;;5072427;28;20462;-53
2023/07/04 06:12:24;;;;;;;4.73;1.90;;;;;;;;;;5072131;28;20731;-52
2023/07/04 06:14:50;;;;;;;3.00;1.70;;;;;;;;;;5072291;28;20231;-52
2023/07/04 06:17:17;;;;;;;4.87;2.37;;;;;;;;;;5072265;28;20200;-53
2023/07/04 06:19:43;;;;;;;4.87;1.80;;;;;;;;;;5071868;28;20215;-52
2023/07/04 06:22:09;;;;;;;4.03;1.83;;;;;;;;;;5072007;28;20196;-52
2023/07/04 06:24:36;;;;;;;6.43;2.00;;;;;;;;;;5071971;28;20706;-53
2023/07/04 06:27:04;;;;;;;5.73;2.03;;;;;;;;;;5071855;28;20204;-53
2023/07/04 06:29:30;;;;;;;4.90;1.90;;;;;;;;;;5071887;28;20677;-52
2023/07/04 06:31:56;;;;;;;3.57;1.97;;;;;;;;;;5071891;28;20208;-52
2023/07/04 06:34:24;;;;;;;6.27;2.10;;;;;;;;;;5071585;28;20277;-52
2023/07/04 06:36:50;;;;;;;3.50;1.80;;;;;;;;;;5071755;28;20199;-52
2023/07/04 06:39:16;;;;;;;8.63;2.20;;;;;;;;;;5071605;28;20223;-52
2023/07/04 06:41:42;;;;;;;4.10;1.70;;;;;;;;;;5071579;28;20605;-54
2023/07/04 06:44:08;;;;;;;4.10;1.77;;;;;;;;;;5070416;28;20649;-53
2023/07/04 06:46:34;;;;;;;3.53;1.90;;;;;;;;;;5071395;28;20228;-53
2023/07/04 06:49:00;;;;;;;3.33;1.70;;;;;;;;;;5070883;28;20253;-53
2023/07/04 06:51:30;;;;;;;4.03;1.80;;;;;;;;;;5071462;28;20203;-53
2023/07/04 06:53:56;;;;;;;3.47;1.57;;;;;;;;;;5071610;28;20670;-54
2023/07/04 06:56:23;;;;;;;2.90;1.50;;;;;;;;;;5071174;28;20195;-53
2023/07/04 06:58:50;;;;;;;5.17;1.60;;;;;;;;;;5071454;28;20195;-52
2023/07/04 07:01:16;;;;;;;5.50;2.10;;;;;;;;;;5071225;28;20207;-52
2023/07/04 07:03:42;;;;;;;3.80;1.70;;;;;;;;;;5071316;28;20731;-53
2023/07/04 07:06:09;;;;;;;2.93;1.50;;;;;;;;;;5071170;28;20219;-52
2023/07/04 07:08:37;;;;;;;3.27;1.70;;;;;;;;;;5071399;28;20200;-53
2023/07/04 07:11:05;;;;;;;3.30;1.93;;;;;;;;;;5071274;28;20291;-53
2023/07/04 07:13:31;;;;;;;2.43;1.60;;;;;;;;;;5071061;28;20277;-53
2023/07/04 07:16:05;;;;;;;4.60;1.83;;;;;;;;;;5071130;28;20203;-53
2023/07/04 07:18:33;;;;;;;2.50;1.50;;;;;;;;;;5071173;28;20216;-53
2023/07/04 07:21:00;;;;;;;2.40;1.70;;;;;;;;;;5071090;28;20739;-53
2023/07/04 07:23:26;;;;;;;4.23;1.90;;;;;;;;;;5070776;28;20237;-52
2023/07/04 07:25:57;;;;;;;6.97;1.70;;;;;;;;;;5071116;28;20202;-53
2023/07/04 07:28:23;;;;;;;5.07;1.80;;;;;;;;;;5070872;28;20244;-53
2023/07/04 07:30:49;;;;;;;2.90;1.80;;;;;;;;;;5070929;28;20194;-53
2023/07/04 07:33:15;;;;;;;3.20;1.63;;;;;;;;;;5070970;28;20705;-53
2023/07/04 07:35:41;;;;;;;2.87;1.80;;;;;;;;;;5070950;28;20195;-50
2023/07/04 07:38:07;;;;;;;2.67;1.40;;;;;;;;;;5070873;28;20207;-55
2023/07/04 07:40:33;;;;;;;3.80;1.50;;;;;;;;;;5070900;28;20253;-54
2023/07/04 07:43:01;;;;;;;3.50;1.80;;;;;;;;;;5070542;28;20272;-54
2023/07/04 07:45:27;;;;;;;2.33;1.60;;;;;;;;;;5070658;28;20234;-50
2023/07/04 07:47:53;;;;;;;2.23;1.70;;;;;;;;;;5070787;28;20520;-49
2023/07/04 07:50:19;;;;;;;4.13;1.77;;;;;;;;;;5067253;28;20494;-49
2023/07/04 07:52:45;;;;;;;7.20;1.60;;;;;;;;;;5068502;28;20212;-49
2023/07/04 07:55:11;;;;;;;4.43;1.93;;;;;;;;;;5070346;28;20239;-50
2023/07/04 07:57:37;;;;;;;2.30;1.50;;;;;;;;;;5068664;28;20198;-49
2023/07/04 08:00:05;;;;;;;1.67;1.23;;;;;;;;;;5072357;28;20762;-49
2023/07/04 08:02:33;;;;;;;4.27;1.70;;;;;;;;;;5074679;28;20250;-53
2023/07/04 08:04:59;;;;;;;2.77;1.60;;;;;;;;;;5074622;28;20278;-52
2023/07/04 08:07:25;;;;;;;3.40;1.80;;;;;;;;;;5074645;28;20198;-50
2023/07/04 08:09:51;;;;;;;2.13;1.57;;;;;;;;;;5074714;28;20202;-50
2023/07/04 08:12:17;;;;;;;3.67;1.63;;;;;;;;;;5074482;28;20607;-50
2023/07/04 08:14:43;;;;;;;4.03;1.60;;;;;;;;;;5074470;28;20695;-50
2023/07/04 08:17:11;;;;;;;6.13;1.50;;;;;;;;;;5074503;28;20227;-47
2023/07/04 08:19:40;;;;;;;4.23;1.43;;;;;;;;;;5074369;28;20597;-51
2023/07/04 08:22:06;;;;;;;2.97;1.43;;;;;;;;;;5074436;28;20190;-52
2023/07/04 08:24:32;;;;;;;5.40;1.80;;;;;;;;;;5074577;28;20655;-49
2023/07/04 08:26:58;;;;;;;4.97;1.80;;;;;;;;;;5074611;28;20681;-51
2023/07/04 08:29:24;;;;;;;6.60;1.80;;;;;;;;;;5074373;28;20191;-51
2023/07/04 08:31:50;;;;;;;4.07;1.73;;;;;;;;;;5074581;28;20213;-51
2023/07/04 08:34:18;;;;;;;3.77;1.70;;;;;;;;;;5074388;28;20207;-54
2023/07/04 08:36:44;;;;;;;2.60;1.63;;;;;;;;;;5074544;28;20217;-51
2023/07/04 08:39:10;;;;;;;3.67;1.87;;;;;;;;;;5074282;28;20680;-51
2023/07/04 08:41:41;;;;;;;4.23;1.87;;;;;;;;;;5074236;28;20235;-50
2023/07/04 08:44:08;;;;;;;4.40;1.80;;;;;;;;;;5074102;28;20269;-52
2023/07/04 08:46:38;;;;;;;3.73;1.50;;;;;;;;;;5074376;28;20620;-51
2023/07/04 08:49:04;;;;;;;4.03;1.43;;;;;;;;;;5074298;28;20207;-52
2023/07/04 08:51:35;;;;;;;3.67;1.80;;;;;;;;;;5074133;28;20290;-52
2023/07/04 08:54:02;;;;;;;4.97;1.60;;;;;;;;;;5074170;28;20889;-53
2023/07/04 08:56:31;;;;;;;2.50;1.33;;;;;;;;;;5074048;28;20245;-53
2023/07/04 08:59:04;;;;;;;6.27;1.80;;;;;;;;;;5074066;28;20207;-52
2023/07/04 09:01:34;;;;;;;2.27;1.40;;;;;;;;;;5073911;28;20439;-52
2023/07/04 09:04:02;;;;;;;2.50;1.43;;;;;;;;;;5073952;28;20223;-52
2023/07/04 09:06:30;;;;;;;2.70;1.40;;;;;;;;;;5073675;28;20254;-52
2023/07/04 09:09:02;;;;;;;4.73;1.67;;;;;;;;;;5073918;28;20195;-53
2023/07/04 09:11:29;;;;;;;4.30;1.50;;;;;;;;;;5073070;28;20282;-52
2023/07/04 09:13:57;;;;;;;4.03;1.57;;;;;;;;;;5073789;28;20192;-51
2023/07/04 09:16:25;;;;;;;3.33;1.57;;;;;;;;;;5073455;28;20249;-52
2023/07/04 09:18:55;;;;;;;4.47;1.60;;;;;;;;;;5073825;28;20416;-51
2023/07/04 09:21:23;;;;;;;3.73;1.60;;;;;;;;;;5073375;28;20223;-52
2023/07/04 09:23:50;;;;;;;4.57;1.67;;;;;;;;;;5073336;28;20251;-51
2023/07/04 09:26:20;;;;;;;6.17;1.60;;;;;;;;;;5073361;28;20245;-53
2023/07/04 09:28:47;;;;;;;4.60;1.90;;;;;;;;;;5073357;28;20199;-52
2023/07/04 09:31:17;;;;;;;5.20;2.03;;;;;;;;;;5073382;28;20199;-52
2023/07/04 09:33:43;;;;;;;3.63;1.80;;;;;;;;;;5073359;28;20203;-52
2023/07/04 09:36:10;;;;;;;3.47;1.63;;;;;;;;;;5073383;28;20219;-52
2023/07/04 09:38:51;;;;;;;5.37;1.90;;;;;;;;;;5073337;28;20198;-54
2023/07/04 09:41:19;;;;;;;4.07;2.00;;;;;;;;;;5070765;28;20226;-53
2023/07/04 09:43:45;;;;;;;4.10;1.93;;;;;;;;;;5073137;28;20739;-52
2023/07/04 09:46:13;;;;;;;3.03;1.60;;;;;;;;;;5073193;28;20227;-51
2023/07/04 09:48:39;;;;;;;3.07;1.90;;;;;;;;;;5073087;28;20199;-53
2023/07/04 09:51:16;;;;;;;3.33;1.90;;;;;;;;;;5073078;28;20603;-53
2023/07/04 09:53:42;;;;;;;5.07;2.00;;;;;;;;;;5073099;28;20191;-52
2023/07/04 09:56:08;;;;;;;4.67;1.80;;;;;;;;;;5072919;28;20569;-53
2023/07/04 09:58:36;;;;;;;6.73;1.80;;;;;;;;;;5072889;28;20183;-53
2023/07/04 10:01:08;;;;;;;4.57;1.97;;;;;;;;;;5072864;28;20200;-52
2023/07/04 10:03:35;;;;;;;6.53;2.00;;;;;;;;;;5072659;28;20303;-52
2023/07/04 10:06:01;;;;;;;4.60;2.20;;;;;;;;;;5072757;28;20556;-52
2023/07/04 10:08:27;;;;;;;5.13;2.10;;;;;;;;;;5072569;28;20434;-52
2023/07/04 10:10:54;;;;;;;3.60;2.07;;;;;;;;;;5072734;28;20279;-51
2023/07/04 10:13:20;;;;;;;4.10;1.97;;;;;;;;;;5072615;28;20201;-52
2023/07/04 10:15:49;;;;;;;5.23;2.33;;;;;;;;;;5072641;28;20590;-52
2023/07/04 10:18:27;;;;;;;4.07;2.17;;;;;;;;;;5072135;28;20697;-52
2023/07/04 10:20:54;;;;;;;3.97;1.87;;;;;;;;;;5072583;28;20206;-52
2023/07/04 10:23:21;;;;;;;5.67;2.00;;;;;;;;;;5071400;28;20226;-52
2023/07/04 10:25:48;;;;;;;3.77;2.27;;;;;;;;;;5072462;28;20233;-52
2023/07/04 10:28:17;;;;;;;4.23;2.27;;;;;;;;;;5072272;28;20215;-53
2023/07/04 10:30:45;;;;;;;3.87;2.00;;;;;;;;;;5072345;28;20206;-52
2023/07/04 10:33:15;;;;;;;7.87;2.17;;;;;;;;;;5072142;28;20199;-53
2023/07/04 10:35:42;;;;;;;8.53;2.30;;;;;;;;;;5072283;28;20207;-52
2023/07/04 10:38:13;;;;;;;5.13;2.27;;;;;;;;;;5072053;28;20647;-52
2023/07/04 10:40:39;;;;;;;4.77;2.00;;;;;;;;;;5071870;28;20219;-51
2023/07/04 10:43:08;;;;;;;4.50;2.20;;;;;;;;;;5071784;28;20250;-51
2023/07/04 10:45:35;;;;;;;7.40;2.07;;;;;;;;;;5071788;28;20241;-51
2023/07/04 10:48:03;;;;;;;4.37;2.30;;;;;;;;;;5071889;28;20658;-52
2023/07/04 10:50:33;;;;;;;5.23;1.77;;;;;;;;;;5071820;28;20302;-52
2023/07/04 10:52:59;;;;;;;5.50;2.07;;;;;;;;;;5071925;28;20261;-52
2023/07/04 10:55:30;;;;;;;5.00;2.17;;;;;;;;;;5071737;28;20226;-51
2023/07/04 10:57:59;;;;;;;5.27;2.20;;;;;;;;;;5071701;28;20622;-51
2023/07/04 11:00:28;;;;;;;4.70;2.00;;;;;;;;;;5071488;28;20256;-53
2023/07/04 11:02:58;;;;;;;4.87;2.10;;;;;;;;;;5071335;28;20191;-54
2023/07/04 11:05:29;;;;;;;4.10;2.00;;;;;;;;;;5071123;28;20646;-53
2023/07/04 11:07:57;;;;;;;5.33;2.20;;;;;;;;;;5071442;28;20253;-54
2023/07/04 11:10:24;;;;;;;5.33;2.40;;;;;;;;;;5071078;28;20235;-53
2023/07/04 11:12:52;;;;;;;3.80;1.80;;;;;;;;;;5070961;28;20195;-54
2023/07/04 11:15:22;;;;;;;6.27;2.37;;;;;;;;;;5070773;28;20695;-54
2023/07/04 11:17:48;;;;;;;4.70;2.30;;;;;;;;;;5071173;28;20196;-54
2023/07/04 11:20:16;;;;;;;4.67;2.07;;;;;;;;;;5070986;28;20294;-54
2023/07/04 11:22:53;;;;;;;5.30;2.40;;;;;;;;;;5071104;28;20617;-53
2023/07/04 11:25:27;;;;;;;5.37;2.20;;;;;;;;;;5070758;28;20568;-54
2023/07/04 11:28:08;;;;;;;9.43;2.90;;;;;;;;;;5070997;28;20628;-55
2023/07/04 11:30:35;;;;;;;4.03;2.73;;;;;;;;;;5070735;28;20213;-53
2023/07/04 11:33:01;;;;;;;6.17;2.53;;;;;;;;;;5070619;28;20649;-55
2023/07/04 11:35:31;;;;;;;4.63;2.30;;;;;;;;;;5070955;28;20279;-54
2023/07/04 11:38:05;;;;;;;3.57;2.10;;;;;;;;;;5070955;28;20207;-53
2023/07/04 11:40:42;;;;;;;3.57;2.20;;;;;;;;;;5070764;28;20565;-54
2023/07/04 11:43:19;;;;;;;7.67;2.70;;;;;;;;;;5070675;28;20256;-53
2023/07/04 11:45:46;;;;;;;6.87;2.60;;;;;;;;;;5070400;28;20259;-57
2023/07/04 11:48:15;;;;;;;6.47;2.40;;;;;;;;;;5070707;28;20202;-55
2023/07/04 11:50:44;;;;;;;5.80;2.53;;;;;;;;;;5070723;28;20283;-57
2023/07/04 11:53:11;;;;;;;7.17;2.70;;;;;;;;;;5070739;28;20208;-58
2023/07/04 11:55:38;;;;;;;5.73;2.47;;;;;;;;;;5070630;28;20523;-55
2023/07/04 11:58:25;;;;;;;6.17;2.70;;;;;;;;;;5064367;28;20213;-53
2023/07/04 12:00:58;;;;;;;7.43;3.13;;;;;;;;;;5050394;28;20227;-52
2023/07/04 12:03:39;;;;;;;7.10;2.67;;;;;;;;;;5050244;28;20196;-50
2023/07/04 12:06:05;;;;;;;8.73;2.73;;;;;;;;;;5037348;28;20228;-53
2023/07/04 12:08:33;;;;;;;6.03;2.40;;;;;;;;;;5050309;28;20560;-50
2023/07/04 12:11:03;;;;;;;5.23;2.13;;;;;;;;;;5050522;28;20225;-52
2023/07/04 12:13:31;;;;;;;6.13;2.70;;;;;;;;;;5050279;28;20266;-52
2023/07/04 12:15:57;;;;;;;6.20;2.60;;;;;;;;;;5050226;28;20229;-51
2023/07/04 12:18:24;;;;;;;6.80;2.20;;;;;;;;;;5050164;28;20632;-53
2023/07/04 12:20:50;;;;;;;5.20;2.13;;;;;;;;;;5050028;28;20537;-53
2023/07/04 12:23:16;;;;;;;5.53;2.20;;;;;;;;;;5050188;28;20191;-53
2023/07/04 12:25:44;;;;;;;4.50;2.27;;;;;;;;;;5050324;28;20674;-52
2023/07/04 12:28:12;;;;;;;5.80;2.20;;;;;;;;;;5049576;28;20544;-53
2023/07/04 12:30:38;;;;;;;5.27;2.70;;;;;;;;;;5050180;28;20210;-53
2023/07/04 12:33:05;;;;;;;4.63;2.40;;;;;;;;;;5046929;28;20754;-53
2023/07/04 12:35:32;;;;;;;5.80;2.33;;;;;;;;;;5050376;28;20580;-52
2023/07/04 12:37:58;;;;;;;4.80;2.00;;;;;;;;;;5050370;28;20654;-51
2023/07/04 12:40:25;;;;;;;4.10;2.10;;;;;;;;;;5050406;28;20576;-52
2023/07/04 12:42:52;;;;;;;5.00;2.03;;;;;;;;;;5047690;28;20239;-52
2023/07/04 12:45:22;;;;;;;5.23;2.30;;;;;;;;;;5050041;28;20262;-52
2023/07/04 12:47:49;;;;;;;6.07;1.97;;;;;;;;;;5053665;28;20196;-52
2023/07/04 12:50:16;;;;;;;3.83;1.80;;;;;;;;;;5053315;28;20250;-52
2023/07/04 12:52:43;;;;;;;4.30;2.23;;;;;;;;;;5053612;28;20200;-51
2023/07/04 12:55:15;;;;;;;4.67;2.10;;;;;;;;;;5053626;28;20193;-52
2023/07/04 12:57:41;;;;;;;5.70;2.63;;;;;;;;;;5053666;28;20564;-53
2023/07/04 13:00:09;;;;;;;6.33;2.50;;;;;;;;;;5053423;28;20196;-52
2023/07/04 13:02:36;;;;;;;5.37;2.20;;;;;;;;;;5053467;28;20207;-52
2023/07/04 13:05:04;;;;;;;4.43;2.23;;;;;;;;;;5053287;28;20232;-51
2023/07/04 13:07:34;;;;;;;3.80;2.10;;;;;;;;;;5053306;28;20294;-51
2023/07/04 13:10:00;;;;;;;6.37;2.30;;;;;;;;;;5053360;28;20448;-52
2023/07/04 13:12:27;;;;;;;5.37;2.43;;;;;;;;;;5053183;28;20242;-51
2023/07/04 13:15:03;;;;;;;5.03;2.40;;;;;;;;;;5053193;28;20192;-52
2023/07/04 13:17:29;;;;;;;6.23;2.90;;;;;;;;;;5053083;28;20225;-51
2023/07/04 13:19:57;;;;;;;5.40;2.70;;;;;;;;;;5053309;28;20650;-51
2023/07/04 13:22:25;;;;;;;7.80;2.70;;;;;;;;;;5053017;28;20674;-50
2023/07/04 13:24:52;;;;;;;5.10;2.43;;;;;;;;;;5053025;28;20286;-52
2023/07/04 13:27:22;;;;;;;6.63;2.60;;;;;;;;;;5052756;28;20203;-53
2023/07/04 13:29:49;;;;;;;5.63;2.23;;;;;;;;;;5052860;28;20200;-52
2023/07/04 13:32:25;;;;;;;4.27;2.50;;;;;;;;;;5052771;28;20573;-51
2023/07/04 13:34:52;;;;;;;5.50;2.40;;;;;;;;;;5053089;28;20223;-50
2023/07/04 13:37:19;;;;;;;6.37;2.83;;;;;;;;;;5052759;28;20200;-49
2023/07/04 13:39:45;;;;;;;6.03;2.50;;;;;;;;;;5052686;28;20234;-52
2023/07/04 13:42:12;;;;;;;4.50;2.67;;;;;;;;;;5052387;28;20243;-50
2023/07/04 13:44:38;;;;;;;4.53;2.33;;;;;;;;;;5052865;28;20277;-51
2023/07/04 13:47:06;;;;;;;5.20;2.40;;;;;;;;;;5052508;28;20267;-51
2023/07/04 13:49:32;;;;;;;5.07;2.20;;;;;;;;;;5052400;28;20259;-50
2023/07/04 13:51:59;;;;;;;5.23;2.23;;;;;;;;;;5052418;28;20227;-51
2023/07/04 13:54:26;;;;;;;9.07;2.80;;;;;;;;;;5052313;28;20382;-50
2023/07/04 13:56:52;;;;;;;4.30;2.37;;;;;;;;;;5051886;28;20207;-51
2023/07/04 13:59:18;;;;;;;5.70;2.40;;;;;;;;;;5051831;28;20196;-50
2023/07/04 14:01:44;;;;;;;5.17;2.40;;;;;;;;;;5052095;28;20199;-51
2023/07/04 14:04:10;;;;;;;7.30;2.40;;;;;;;;;;5052056;28;20234;-52
2023/07/04 14:06:36;;;;;;;5.27;2.40;;;;;;;;;;5051938;28;20195;-52
2023/07/04 14:09:02;;;;;;;5.90;2.83;;;;;;;;;;5051964;28;20192;-50
2023/07/04 14:11:29;;;;;;;5.07;2.30;;;;;;;;;;5052127;28;20211;-51
2023/07/04 14:13:55;;;;;;;6.83;2.27;;;;;;;;;;5052179;28;20207;-51
2023/07/04 14:16:23;;;;;;;5.53;2.13;;;;;;;;;;5051898;28;20195;-51
2023/07/04 14:18:49;;;;;;;6.53;2.37;;;;;;;;;;5051917;28;20668;-50
2023/07/04 14:21:16;;;;;;;8.30;2.77;;;;;;;;;;5051732;28;20227;-50
2023/07/04 14:23:43;;;;;;;6.30;2.83;;;;;;;;;;5051880;28;20286;-52
2023/07/04 14:26:12;;;;;;;5.13;2.47;;;;;;;;;;5051950;28;20223;-51
2023/07/04 14:28:39;;;;;;;8.73;2.70;;;;;;;;;;5051576;28;20195;-51
2023/07/04 14:31:05;;;;;;;6.57;2.80;;;;;;;;;;5051939;28;20214;-50
2023/07/04 14:33:31;;;;;;;5.80;2.73;;;;;;;;;;5051492;28;20214;-51
2023/07/04 14:35:57;;;;;;;4.93;2.27;;;;;;;;;;5050001;28;20203;-51
2023/07/04 14:38:24;;;;;;;4.90;2.40;;;;;;;;;;5051963;28;20199;-51
2023/07/04 14:40:50;;;;;;;6.57;2.90;;;;;;;;;;5052062;28;20199;-52
2023/07/04 14:43:16;;;;;;;6.27;2.50;;;;;;;;;;5051800;28;20309;-52